createdAt,value
2022-09-22T00:00:07.093Z,65.93
2022-09-22T00:00:39.082Z,64.05
2022-09-22T00:01:11.863Z,64.38
2022-09-22T00:01:44.680Z,64.25
2022-09-22T00:02:16.526Z,65.45
2022-09-22T00:02:48.377Z,65.03
2022-09-22T00:03:20.063Z,64.72
2022-09-22T00:03:53.463Z,66.15
2022-09-22T00:04:25.172Z,64.53
2022-09-22T00:04:57.775Z,65.30
2022-09-22T00:05:29.827Z,65.30
2022-09-22T00:06:02.823Z,64.70
2022-09-22T00:06:35.183Z,65.13
2022-09-22T00:07:07.875Z,64.35
2022-09-22T00:07:39.870Z,65.85
2022-09-22T00:08:11.447Z,64.38
2022-09-22T00:08:44.664Z,65.22
2022-09-22T00:09:20.993Z,65.15
2022-09-22T00:09:53.965Z,66.43
2022-09-22T00:10:25.592Z,65.30
2022-09-22T00:11:01.603Z,64.78
2022-09-22T00:11:36.096Z,64.85
2022-09-22T00:12:07.817Z,64.50
2022-09-22T00:12:39.465Z,65.03
2022-09-22T00:13:12.145Z,64.47
2022-09-22T00:13:44.360Z,65.43
2022-09-22T00:14:18.423Z,65.03
2022-09-22T00:14:50.045Z,64.63
2022-09-22T00:15:22.225Z,64.82
2022-09-22T00:15:53.906Z,65.15
2022-09-22T00:16:27.994Z,65.40
2022-09-22T00:17:01.421Z,64.18
2022-09-22T00:17:34.045Z,64.30
2022-09-22T00:18:05.646Z,64.90
2022-09-22T00:18:37.732Z,64.28
2022-09-22T00:19:14.792Z,64.05
2022-09-22T00:19:46.535Z,64.00
2022-09-22T00:20:18.194Z,63.83
2022-09-22T00:20:51.207Z,64.80
2022-09-22T00:21:23.980Z,64.82
2022-09-22T00:21:55.616Z,65.47
2022-09-22T00:22:28.323Z,64.50
2022-09-22T00:22:59.923Z,64.85
2022-09-22T00:23:33.009Z,64.78
2022-09-22T00:24:07.127Z,64.55
2022-09-22T00:24:39.093Z,64.25
2022-09-22T00:25:12.185Z,63.42
2022-09-22T00:25:44.839Z,63.50
2022-09-22T00:26:23.098Z,63.45
2022-09-22T00:26:57.482Z,63.28
2022-09-22T00:27:29.141Z,64.03
2022-09-22T00:28:00.963Z,64.45
2022-09-22T00:28:32.980Z,64.32
2022-09-22T00:29:06.871Z,63.97
2022-09-22T00:29:38.531Z,64.13
2022-09-22T00:30:10.942Z,63.95
2022-09-22T00:30:43.605Z,63.70
2022-09-22T00:31:16.571Z,64.50
2022-09-22T00:31:48.496Z,63.90
2022-09-22T00:32:21.200Z,63.28
2022-09-22T00:32:52.909Z,63.80
2022-09-22T00:33:24.696Z,63.80
2022-09-22T00:33:57.308Z,64.38
2022-09-22T00:34:29.083Z,64.38
2022-09-22T00:35:00.785Z,64.05
2022-09-22T00:35:32.419Z,63.55
2022-09-22T00:36:05.606Z,63.63
2022-09-22T00:36:37.231Z,64.45
2022-09-22T00:37:09.781Z,64.75
2022-09-22T00:37:41.433Z,63.65
2022-09-22T00:38:13.041Z,65.40
2022-09-22T00:38:46.573Z,64.87
2022-09-22T00:39:18.655Z,63.60
2022-09-22T00:39:50.266Z,64.38
2022-09-22T00:40:24.377Z,64.88
2022-09-22T00:40:56.099Z,64.35
2022-09-22T00:41:28.950Z,63.90
2022-09-22T00:42:01.651Z,63.40
2022-09-22T00:42:33.365Z,63.53
2022-09-22T00:43:15.035Z,64.30
2022-09-22T00:43:48.569Z,64.45
2022-09-22T00:44:41.030Z,64.22
2022-09-22T00:45:13.766Z,64.18
2022-09-22T00:45:46.293Z,64.20
2022-09-22T00:46:19.195Z,63.03
2022-09-22T00:46:52.601Z,63.88
2022-09-22T00:47:30.520Z,64.07
2022-09-22T00:48:02.155Z,63.63
2022-09-22T00:48:37.155Z,63.35
2022-09-22T00:49:08.923Z,63.58
2022-09-22T00:49:44.359Z,63.03
2022-09-22T00:50:18.605Z,62.65
2022-09-22T00:50:52.127Z,63.08
2022-09-22T00:51:28.111Z,63.67
2022-09-22T00:51:59.989Z,62.65
2022-09-22T00:52:34.213Z,63.67
2022-09-22T00:53:07.473Z,63.53
2022-09-22T00:53:39.175Z,63.63
2022-09-22T00:54:13.432Z,64.20
2022-09-22T00:54:45.148Z,63.45
2022-09-22T00:55:18.701Z,62.92
2022-09-22T00:55:54.797Z,63.70
2022-09-22T00:56:28.626Z,61.80
2022-09-22T00:57:02.812Z,62.83
2022-09-22T00:57:36.579Z,62.65
2022-09-22T00:58:09.175Z,63.33
2022-09-22T00:58:42.657Z,62.17
2022-09-22T00:59:17.961Z,63.80
2022-09-22T00:59:50.557Z,61.90
2022-09-22T01:00:22.434Z,63.90
2022-09-22T01:00:55.258Z,63.00
2022-09-22T01:01:26.990Z,62.90
2022-09-22T01:01:58.719Z,63.17
2022-09-22T01:02:31.457Z,62.58
2022-09-22T01:03:06.196Z,62.80
2022-09-22T01:03:39.206Z,62.42
2022-09-22T01:04:12.851Z,62.85
2022-09-22T01:04:44.622Z,62.55
2022-09-22T01:05:16.621Z,63.30
2022-09-22T01:05:50.662Z,62.15
2022-09-22T01:06:24.817Z,63.00
2022-09-22T01:06:57.065Z,62.90
2022-09-22T01:07:31.185Z,63.28
2022-09-22T01:08:03.048Z,63.35
2022-09-22T01:08:35.047Z,63.25
2022-09-22T01:09:07.783Z,62.92
2022-09-22T01:09:39.445Z,63.28
2022-09-22T01:10:11.364Z,63.17
2022-09-22T01:10:44.725Z,62.40
2022-09-22T01:11:20.701Z,63.60
2022-09-22T01:11:59.348Z,62.75
2022-09-22T01:12:32.768Z,62.50
2022-09-22T01:13:10.971Z,63.17
2022-09-22T01:13:46.268Z,63.08
2022-09-22T01:14:22.207Z,63.97
2022-09-22T01:15:11.423Z,62.60
2022-09-22T01:15:50.552Z,63.92
2022-09-22T01:16:28.985Z,62.38
2022-09-22T01:17:05.316Z,62.67
2022-09-22T01:17:43.121Z,62.67
2022-09-22T01:18:19.916Z,62.33
2022-09-22T01:18:57.358Z,62.97
2022-09-22T01:19:43.841Z,62.42
2022-09-22T01:20:35.731Z,63.00
2022-09-22T01:21:19.689Z,63.42
2022-09-22T01:21:56.028Z,62.03
2022-09-22T01:22:36.546Z,63.65
2022-09-22T01:23:25.203Z,62.95
2022-09-22T01:24:10.081Z,62.60
2022-09-22T01:24:55.702Z,62.45
2022-09-22T01:25:39.715Z,62.45
2022-09-22T01:26:21.119Z,63.42
2022-09-22T01:27:16.559Z,62.17
2022-09-22T01:27:57.287Z,62.85
2022-09-22T01:28:40.727Z,62.95
2022-09-22T01:29:28.176Z,62.38
2022-09-22T01:30:15.251Z,62.25
2022-09-22T01:30:49.157Z,62.47
2022-09-22T01:31:23.050Z,63.47
2022-09-22T01:32:00.076Z,63.03
2022-09-22T01:32:33.840Z,62.90
2022-09-22T01:33:23.042Z,62.80
2022-09-22T01:33:59.027Z,63.40
2022-09-22T01:34:32.557Z,63.80
2022-09-22T01:35:05.936Z,62.42
2022-09-22T01:35:43.157Z,63.10
2022-09-22T01:36:19.091Z,62.40
2022-09-22T01:36:56.340Z,62.78
2022-09-22T01:37:31.607Z,63.17
2022-09-22T01:38:06.357Z,62.70
2022-09-22T01:38:43.052Z,63.30
2022-09-22T01:39:17.144Z,63.28
2022-09-22T01:39:51.488Z,62.30
2022-09-22T01:40:27.746Z,62.88
2022-09-22T01:41:02.261Z,62.83
2022-09-22T01:41:51.877Z,63.80
2022-09-22T01:42:28.542Z,62.95
2022-09-22T01:43:02.908Z,62.00
2022-09-22T01:43:38.803Z,62.65
2022-09-22T01:44:13.723Z,63.38
2022-09-22T01:44:48.120Z,62.72
2022-09-22T01:45:22.311Z,64.68
2022-09-22T01:45:55.155Z,63.88
2022-09-22T01:46:31.126Z,63.05
2022-09-22T01:47:04.765Z,62.08
2022-09-22T01:47:40.773Z,63.83
2022-09-22T01:48:14.948Z,63.20
2022-09-22T01:48:48.894Z,63.17
2022-09-22T01:49:22.567Z,63.90
2022-09-22T01:49:56.362Z,62.50
2022-09-22T01:50:30.123Z,62.22
2022-09-22T01:51:05.983Z,64.00
2022-09-22T01:51:40.405Z,63.10
2022-09-22T01:52:13.599Z,62.97
2022-09-22T01:52:45.466Z,64.18
2022-09-22T01:53:19.618Z,62.30
2022-09-22T01:53:54.443Z,62.67
2022-09-22T01:54:28.675Z,62.25
2022-09-22T01:55:04.122Z,62.47
2022-09-22T01:55:38.031Z,62.03
2022-09-22T01:56:11.481Z,62.00
2022-09-22T01:56:45.563Z,62.35
2022-09-22T01:57:19.616Z,62.47
2022-09-22T01:57:53.671Z,63.47
2022-09-22T01:58:29.313Z,62.33
2022-09-22T01:59:03.340Z,62.17
2022-09-22T01:59:37.905Z,62.28
2022-09-22T02:00:11.585Z,62.63
2022-09-22T02:00:49.283Z,63.30
2022-09-22T02:01:24.081Z,61.10
2022-09-22T02:01:57.475Z,62.78
2022-09-22T02:02:32.105Z,62.95
2022-09-22T02:03:07.468Z,63.20
2022-09-22T02:03:40.981Z,62.00
2022-09-22T02:04:17.854Z,62.13
2022-09-22T02:04:52.493Z,62.92
2022-09-22T02:05:26.505Z,63.75
2022-09-22T02:06:01.707Z,64.15
2022-09-22T02:06:36.845Z,63.25
2022-09-22T02:07:12.033Z,62.47
2022-09-22T02:07:46.984Z,62.20
2022-09-22T02:08:22.061Z,62.88
2022-09-22T02:08:55.602Z,62.90
2022-09-22T02:09:29.828Z,62.80
2022-09-22T02:10:04.368Z,61.78
2022-09-22T02:10:38.539Z,62.00
2022-09-22T02:11:13.831Z,62.23
2022-09-22T02:11:45.668Z,62.78
2022-09-22T02:12:19.798Z,62.35
2022-09-22T02:12:52.636Z,62.35
2022-09-22T02:13:24.351Z,62.70
2022-09-22T02:13:56.100Z,62.92
2022-09-22T02:14:29.090Z,62.80
2022-09-22T02:15:00.729Z,63.13
2022-09-22T02:15:51.005Z,62.70
2022-09-22T02:16:25.325Z,61.42
2022-09-22T02:16:57.273Z,62.97
2022-09-22T02:17:34.420Z,62.42
2022-09-22T02:18:09.569Z,61.63
2022-09-22T02:18:43.545Z,62.47
2022-09-22T02:19:19.356Z,63.00
2022-09-22T02:19:52.226Z,63.08
2022-09-22T02:20:26.156Z,61.45
2022-09-22T02:20:59.012Z,62.13
2022-09-22T02:21:31.138Z,61.92
2022-09-22T02:22:04.122Z,62.03
2022-09-22T02:22:36.730Z,61.95
2022-09-22T02:23:08.472Z,62.35
2022-09-22T02:23:40.382Z,63.88
2022-09-22T02:24:26.863Z,62.13
2022-09-22T02:24:58.466Z,63.08
2022-09-22T02:25:30.475Z,63.13
2022-09-22T02:26:03.939Z,63.30
2022-09-22T02:26:36.458Z,62.40
2022-09-22T02:27:11.914Z,62.97
2022-09-22T02:27:46.032Z,61.85
2022-09-22T02:28:19.656Z,61.83
2022-09-22T02:28:54.046Z,62.15
2022-09-22T02:29:27.944Z,62.25
2022-09-22T02:30:02.082Z,62.65
2022-09-22T02:30:33.987Z,62.17
2022-09-22T02:31:23.035Z,62.88
2022-09-22T02:31:56.550Z,62.40
2022-09-22T02:32:29.806Z,61.58
2022-09-22T02:33:01.789Z,62.35
2022-09-22T02:33:38.098Z,63.05
2022-09-22T02:34:11.011Z,61.97
2022-09-22T02:34:42.979Z,63.85
2022-09-22T02:35:14.918Z,62.58
2022-09-22T02:35:48.618Z,61.72
2022-09-22T02:36:39.128Z,62.60
2022-09-22T02:37:14.958Z,62.92
2022-09-22T02:37:49.467Z,62.72
2022-09-22T02:38:26.086Z,62.65
2022-09-22T02:39:01.974Z,62.25
2022-09-22T02:39:35.562Z,61.35
2022-09-22T02:40:11.073Z,63.40
2022-09-22T02:40:44.839Z,61.47
2022-09-22T02:41:20.997Z,61.63
2022-09-22T02:42:08.702Z,62.35
2022-09-22T02:42:41.850Z,61.72
2022-09-22T02:43:15.466Z,61.92
2022-09-22T02:43:49.756Z,61.25
2022-09-22T02:44:24.038Z,60.90
2022-09-22T02:44:58.900Z,62.55
2022-09-22T02:45:34.064Z,60.88
2022-09-22T02:46:09.061Z,61.78
2022-09-22T02:46:42.141Z,61.95
2022-09-22T02:47:18.846Z,62.05
2022-09-22T02:47:52.548Z,62.42
2022-09-22T02:48:25.694Z,62.47
2022-09-22T02:49:00.312Z,62.53
2022-09-22T02:49:33.128Z,62.05
2022-09-22T02:50:08.341Z,62.42
2022-09-22T02:50:41.207Z,61.70
2022-09-22T02:51:14.172Z,62.70
2022-09-22T02:51:48.236Z,62.03
2022-09-22T02:52:21.840Z,62.30
2022-09-22T02:52:57.543Z,62.15
2022-09-22T02:53:29.186Z,62.67
2022-09-22T02:54:03.474Z,62.53
2022-09-22T02:54:35.243Z,61.55
2022-09-22T02:55:07.688Z,62.35
2022-09-22T02:55:40.458Z,62.25
2022-09-22T02:56:12.086Z,61.17
2022-09-22T02:56:43.852Z,62.08
2022-09-22T02:57:16.527Z,62.28
2022-09-22T02:57:48.685Z,61.22
2022-09-22T02:58:20.821Z,61.13
2022-09-22T02:58:58.210Z,62.03
2022-09-22T02:59:30.190Z,61.70
2022-09-22T03:00:02.086Z,62.35
2022-09-22T03:00:34.944Z,61.92
2022-09-22T03:01:06.592Z,62.22
2022-09-22T03:01:38.332Z,62.13
2022-09-22T03:02:10.988Z,61.47
2022-09-22T03:02:43.994Z,62.22
2022-09-22T03:03:15.622Z,61.50
2022-09-22T03:03:48.256Z,62.70
2022-09-22T03:04:19.924Z,63.30
2022-09-22T03:04:51.647Z,61.22
2022-09-22T03:05:24.396Z,61.70
2022-09-22T03:05:56.094Z,62.40
2022-09-22T03:06:27.763Z,62.13
2022-09-22T03:07:00.396Z,63.03
2022-09-22T03:07:32.061Z,61.78
2022-09-22T03:08:03.634Z,61.53
2022-09-22T03:08:36.462Z,62.13
2022-09-22T03:09:08.160Z,61.60
2022-09-22T03:09:39.886Z,61.50
2022-09-22T03:10:12.824Z,62.47
2022-09-22T03:10:44.436Z,62.70
2022-09-22T03:11:16.094Z,62.15
2022-09-22T03:11:48.726Z,62.03
2022-09-22T03:12:20.406Z,62.03
2022-09-22T03:13:14.982Z,61.35
2022-09-22T03:13:44.670Z,61.90
2022-09-22T03:14:16.343Z,61.45
2022-09-22T03:14:49.867Z,62.33
2022-09-22T03:15:26.986Z,62.42
2022-09-22T03:15:58.862Z,62.00
2022-09-22T03:16:30.612Z,61.58
2022-09-22T03:17:03.252Z,61.60
2022-09-22T03:17:35.316Z,61.85
2022-09-22T03:18:08.422Z,61.22
2022-09-22T03:18:40.973Z,61.47
2022-09-22T03:19:12.696Z,61.85
2022-09-22T03:19:44.442Z,61.90
2022-09-22T03:20:17.290Z,60.90
2022-09-22T03:20:48.930Z,61.20
2022-09-22T03:21:20.551Z,62.67
2022-09-22T03:21:52.144Z,62.40
2022-09-22T03:22:24.816Z,63.08
2022-09-22T03:22:56.409Z,62.00
2022-09-22T03:23:28.123Z,62.33
2022-09-22T03:24:00.748Z,63.03
2022-09-22T03:24:32.413Z,62.22
2022-09-22T03:25:04.322Z,61.70
2022-09-22T03:25:36.920Z,60.72
2022-09-22T03:26:08.554Z,60.28
2022-09-22T03:26:40.222Z,61.40
2022-09-22T03:27:12.902Z,61.33
2022-09-22T03:27:44.595Z,61.00
2022-09-22T03:28:16.211Z,61.22
2022-09-22T03:28:48.802Z,61.88
2022-09-22T03:29:21.218Z,62.50
2022-09-22T03:29:53.216Z,61.20
2022-09-22T03:30:25.843Z,60.75
2022-09-22T03:30:57.582Z,61.95
2022-09-22T03:31:29.288Z,61.60
2022-09-22T03:32:02.132Z,62.13
2022-09-22T03:32:33.860Z,62.00
2022-09-22T03:33:05.481Z,60.58
2022-09-22T03:33:39.698Z,60.35
2022-09-22T03:34:11.342Z,62.33
2022-09-22T03:34:42.970Z,62.03
2022-09-22T03:35:14.653Z,61.30
2022-09-22T03:35:47.899Z,61.90
2022-09-22T03:36:20.639Z,61.55
2022-09-22T03:36:52.231Z,60.95
2022-09-22T03:37:24.172Z,61.30
2022-09-22T03:37:56.803Z,62.13
2022-09-22T03:38:28.406Z,61.17
2022-09-22T03:39:00.146Z,60.90
2022-09-22T03:39:33.604Z,62.20
2022-09-22T03:40:05.805Z,62.35
2022-09-22T03:40:37.546Z,62.63
2022-09-22T03:41:10.218Z,61.55
2022-09-22T03:41:41.894Z,62.30
2022-09-22T03:42:13.568Z,62.40
2022-09-22T03:42:45.222Z,62.38
2022-09-22T03:43:17.864Z,62.13
2022-09-22T03:43:49.492Z,62.70
2022-09-22T03:44:21.157Z,61.95
2022-09-22T03:44:53.779Z,61.63
2022-09-22T03:45:25.439Z,62.58
2022-09-22T03:45:58.429Z,63.38
2022-09-22T03:46:31.180Z,62.40
2022-09-22T03:47:03.026Z,62.15
2022-09-22T03:47:34.676Z,62.67
2022-09-22T03:48:07.330Z,62.50
2022-09-22T03:48:44.783Z,63.10
2022-09-22T03:49:16.871Z,62.30
2022-09-22T03:49:49.635Z,61.72
2022-09-22T03:50:21.722Z,62.80
2022-09-22T03:50:53.414Z,61.83
2022-09-22T03:51:26.042Z,63.50
2022-09-22T03:51:57.918Z,62.17
2022-09-22T03:52:29.616Z,61.97
2022-09-22T03:53:01.310Z,62.25
2022-09-22T03:53:34.058Z,62.05
2022-09-22T03:54:06.606Z,62.45
2022-09-22T03:54:38.382Z,61.85
2022-09-22T03:55:11.127Z,62.00
2022-09-22T03:55:42.725Z,63.20
2022-09-22T03:56:15.354Z,62.42
2022-09-22T03:56:47.967Z,62.13
2022-09-22T03:57:19.596Z,62.20
2022-09-22T03:57:51.247Z,62.17
2022-09-22T03:58:23.828Z,62.95
2022-09-22T03:58:55.526Z,62.63
2022-09-22T03:59:27.237Z,61.95
2022-09-22T03:59:59.895Z,62.33
2022-09-22T04:00:31.739Z,62.25
2022-09-22T04:01:03.501Z,61.90
2022-09-22T04:01:36.149Z,62.83
2022-09-22T04:02:08.200Z,62.70
2022-09-22T04:02:40.236Z,61.80
2022-09-22T04:03:13.708Z,62.67
2022-09-22T04:03:46.754Z,62.30
2022-09-22T04:04:18.497Z,62.65
2022-09-22T04:04:51.144Z,62.67
2022-09-22T04:05:22.771Z,63.17
2022-09-22T04:05:54.625Z,62.47
2022-09-22T04:06:27.255Z,63.13
2022-09-22T04:07:03.412Z,63.42
2022-09-22T04:07:38.882Z,63.28
2022-09-22T04:08:11.559Z,63.20
2022-09-22T04:08:43.233Z,62.65
2022-09-22T04:09:17.641Z,62.88
2022-09-22T04:09:50.269Z,64.37
2022-09-22T04:10:22.018Z,62.83
2022-09-22T04:10:54.139Z,62.90
2022-09-22T04:11:26.842Z,63.30
2022-09-22T04:11:58.517Z,63.20
2022-09-22T04:12:30.188Z,63.13
2022-09-22T04:13:02.805Z,62.28
2022-09-22T04:13:35.434Z,63.67
2022-09-22T04:14:07.095Z,62.70
2022-09-22T04:14:39.715Z,62.30
2022-09-22T04:15:11.371Z,61.90
2022-09-22T04:15:43.119Z,63.15
2022-09-22T04:16:14.899Z,62.95
2022-09-22T04:16:47.648Z,61.83
2022-09-22T04:17:20.535Z,63.33
2022-09-22T04:17:52.288Z,63.20
2022-09-22T04:18:25.795Z,63.20
2022-09-22T04:18:59.016Z,63.55
2022-09-22T04:19:36.002Z,62.03
2022-09-22T04:20:11.290Z,61.40
2022-09-22T04:20:43.735Z,63.08
2022-09-22T04:21:15.533Z,63.45
2022-09-22T04:21:50.139Z,63.05
2022-09-22T04:22:24.997Z,62.22
2022-09-22T04:22:56.625Z,63.33
2022-09-22T04:23:29.242Z,63.15
2022-09-22T04:24:01.054Z,63.30
2022-09-22T04:24:33.059Z,62.30
2022-09-22T04:25:06.292Z,64.22
2022-09-22T04:25:38.251Z,63.22
2022-09-22T04:26:09.925Z,61.72
2022-09-22T04:27:01.907Z,62.63
2022-09-22T04:27:34.169Z,62.85
2022-09-22T04:28:07.350Z,63.65
2022-09-22T04:28:39.003Z,63.03
2022-09-22T04:29:10.678Z,62.80
2022-09-22T04:29:43.292Z,63.22
2022-09-22T04:30:15.281Z,62.92
2022-09-22T04:30:47.403Z,63.33
2022-09-22T04:31:20.197Z,62.60
2022-09-22T04:31:51.892Z,63.20
2022-09-22T04:32:23.601Z,62.67
2022-09-22T04:32:56.209Z,63.28
2022-09-22T04:33:27.891Z,62.67
2022-09-22T04:34:05.457Z,63.55
2022-09-22T04:34:40.013Z,63.15
2022-09-22T04:35:11.691Z,62.80
2022-09-22T04:35:43.488Z,62.58
2022-09-22T04:36:16.184Z,62.83
2022-09-22T04:36:48.023Z,63.85
2022-09-22T04:37:19.697Z,63.33
2022-09-22T04:37:52.243Z,62.97
2022-09-22T04:38:23.931Z,62.80
2022-09-22T04:38:55.599Z,63.80
2022-09-22T04:39:28.758Z,63.08
2022-09-22T04:40:00.653Z,63.80
2022-09-22T04:40:32.808Z,63.58
2022-09-22T04:41:05.549Z,63.83
2022-09-22T04:41:37.280Z,63.55
2022-09-22T04:42:09.170Z,62.90
2022-09-22T04:42:41.945Z,63.03
2022-09-22T04:43:13.521Z,63.58
2022-09-22T04:43:45.147Z,62.85
2022-09-22T04:44:17.825Z,63.72
2022-09-22T04:44:49.449Z,63.35
2022-09-22T04:45:21.142Z,62.83
2022-09-22T04:45:53.910Z,63.05
2022-09-22T04:46:27.226Z,63.30
2022-09-22T04:46:58.889Z,63.45
2022-09-22T04:47:30.545Z,64.18
2022-09-22T04:48:03.269Z,64.95
2022-09-22T04:48:34.887Z,63.90
2022-09-22T04:49:07.939Z,64.18
2022-09-22T04:49:40.544Z,64.07
2022-09-22T04:50:12.326Z,65.15
2022-09-22T04:50:47.982Z,65.95
2022-09-22T04:51:21.039Z,64.72
2022-09-22T04:51:52.621Z,64.65
2022-09-22T04:52:24.620Z,64.32
2022-09-22T04:52:58.182Z,63.50
2022-09-22T04:53:29.834Z,64.68
2022-09-22T04:54:02.576Z,64.93
2022-09-22T04:54:34.252Z,64.47
2022-09-22T04:55:06.455Z,63.97
2022-09-22T04:55:39.223Z,63.83
2022-09-22T04:56:10.890Z,64.13
2022-09-22T04:56:42.748Z,64.68
2022-09-22T04:57:19.741Z,64.45
2022-09-22T04:57:52.773Z,63.72
2022-09-22T04:58:25.404Z,64.88
2022-09-22T04:58:57.112Z,65.43
2022-09-22T04:59:29.597Z,64.15
2022-09-22T05:00:02.817Z,63.88
2022-09-22T05:00:34.486Z,64.35
2022-09-22T05:01:06.748Z,64.05
2022-09-22T05:01:39.771Z,64.22
2022-09-22T05:02:11.487Z,63.97
2022-09-22T05:02:43.287Z,65.13
2022-09-22T05:03:21.313Z,65.10
2022-09-22T05:03:53.838Z,65.15
2022-09-22T05:04:26.837Z,65.55
2022-09-22T05:04:59.484Z,64.60
2022-09-22T05:05:31.625Z,64.80
2022-09-22T05:06:03.409Z,63.97
2022-09-22T05:06:36.400Z,65.60
2022-09-22T05:07:08.092Z,65.85
2022-09-22T05:07:41.382Z,65.07
2022-09-22T05:08:14.469Z,65.32
2022-09-22T05:08:46.146Z,64.93
2022-09-22T05:09:17.887Z,65.20
2022-09-22T05:09:50.510Z,65.20
2022-09-22T05:10:24.227Z,65.25
2022-09-22T05:10:56.753Z,65.82
2022-09-22T05:11:30.226Z,65.70
2022-09-22T05:12:02.067Z,65.07
2022-09-22T05:12:33.831Z,64.88
2022-09-22T05:13:06.830Z,65.88
2022-09-22T05:13:41.102Z,64.70
2022-09-22T05:14:13.943Z,64.80
2022-09-22T05:14:45.569Z,66.40
2022-09-22T05:15:17.385Z,65.03
2022-09-22T05:15:50.053Z,64.65
2022-09-22T05:16:21.813Z,65.70
2022-09-22T05:16:53.513Z,67.28
2022-09-22T05:17:26.195Z,65.25
2022-09-22T05:17:58.073Z,65.07
2022-09-22T05:18:30.640Z,65.38
2022-09-22T05:19:02.269Z,65.32
2022-09-22T05:19:35.225Z,66.72
2022-09-22T05:20:10.869Z,65.53
2022-09-22T05:20:43.304Z,66.00
2022-09-22T05:21:14.981Z,65.65
2022-09-22T05:21:47.650Z,64.72
2022-09-22T05:22:22.842Z,64.57
2022-09-22T05:22:54.821Z,64.65
2022-09-22T05:23:27.686Z,64.97
2022-09-22T05:23:59.510Z,65.22
2022-09-22T05:24:31.922Z,65.22
2022-09-22T05:25:04.601Z,65.78
2022-09-22T05:25:36.329Z,66.10
2022-09-22T05:26:08.325Z,64.63
2022-09-22T05:26:40.957Z,67.45
2022-09-22T05:27:13.462Z,65.80
2022-09-22T05:27:46.332Z,66.57
2022-09-22T05:28:19.349Z,65.80
2022-09-22T05:28:51.658Z,64.50
2022-09-22T05:29:27.698Z,64.63
2022-09-22T05:30:00.967Z,64.85
2022-09-22T05:30:32.607Z,65.05
2022-09-22T05:31:04.730Z,66.43
2022-09-22T05:31:37.596Z,65.60
2022-09-22T05:32:09.371Z,66.95
2022-09-22T05:32:42.325Z,65.65
2022-09-22T05:33:14.932Z,66.10
2022-09-22T05:33:46.777Z,65.88
2022-09-22T05:34:18.753Z,66.22
2022-09-22T05:34:52.863Z,66.95
2022-09-22T05:35:24.823Z,66.43
2022-09-22T05:35:56.491Z,65.97
2022-09-22T05:36:29.129Z,65.97
2022-09-22T05:37:00.780Z,66.05
2022-09-22T05:37:32.430Z,65.45
2022-09-22T05:38:05.009Z,67.22
2022-09-22T05:38:36.753Z,66.20
2022-09-22T05:39:08.625Z,66.05
2022-09-22T05:39:41.211Z,66.55
2022-09-22T05:40:13.298Z,65.55
2022-09-22T05:40:46.806Z,67.18
2022-09-22T05:41:18.498Z,65.70
2022-09-22T05:41:51.276Z,67.18
2022-09-22T05:42:23.831Z,65.43
2022-09-22T05:42:55.581Z,65.80
2022-09-22T05:43:28.272Z,67.43
2022-09-22T05:44:00.334Z,67.45
2022-09-22T05:44:32.261Z,65.93
2022-09-22T05:45:04.991Z,68.70
2022-09-22T05:45:36.738Z,68.70
2022-09-22T05:46:08.988Z,66.22
2022-09-22T05:46:41.681Z,67.60
2022-09-22T05:47:13.326Z,67.05
2022-09-22T05:47:45.370Z,67.95
2022-09-22T05:48:18.114Z,65.50
2022-09-22T05:48:49.927Z,66.57
2022-09-22T05:49:22.533Z,68.22
2022-09-22T05:49:56.079Z,67.50
2022-09-22T05:50:27.705Z,67.13
2022-09-22T05:51:01.420Z,67.30
2022-09-22T05:51:33.082Z,67.10
2022-09-22T05:52:04.826Z,67.85
2022-09-22T05:52:37.785Z,67.07
2022-09-22T05:53:10.316Z,67.90
2022-09-22T05:53:43.112Z,67.18
2022-09-22T05:54:14.806Z,67.10
2022-09-22T05:54:47.607Z,67.97
2022-09-22T05:55:19.197Z,66.65
2022-09-22T05:55:50.886Z,66.95
2022-09-22T05:56:23.663Z,68.13
2022-09-22T05:56:55.787Z,67.03
2022-09-22T05:57:27.672Z,66.22
2022-09-22T05:58:00.690Z,68.65
2022-09-22T05:58:32.447Z,66.70
2022-09-22T05:59:05.068Z,67.95
2022-09-22T05:59:36.697Z,67.07
2022-09-22T06:00:08.963Z,68.10
2022-09-22T06:00:44.384Z,66.88
2022-09-22T06:01:16.109Z,68.13
2022-09-22T06:01:49.002Z,67.85
2022-09-22T06:02:25.982Z,68.57
2022-09-22T06:02:58.281Z,67.07
2022-09-22T06:03:31.173Z,67.85
2022-09-22T06:04:02.841Z,67.97
2022-09-22T06:04:34.455Z,67.93
2022-09-22T06:05:08.874Z,68.07
2022-09-22T06:05:40.843Z,68.63
2022-09-22T06:06:12.504Z,66.05
2022-09-22T06:06:45.180Z,69.85
2022-09-22T06:07:16.934Z,68.60
2022-09-22T06:07:55.425Z,67.45
2022-09-22T06:08:28.098Z,67.65
2022-09-22T06:09:00.022Z,68.07
2022-09-22T06:09:31.805Z,68.85
2022-09-22T06:10:04.730Z,68.57
2022-09-22T06:10:37.196Z,68.85
2022-09-22T06:11:09.802Z,68.65
2022-09-22T06:11:41.492Z,68.65
2022-09-22T06:12:13.587Z,68.22
2022-09-22T06:12:46.223Z,69.00
2022-09-22T06:13:17.978Z,68.22
2022-09-22T06:13:50.775Z,67.85
2022-09-22T06:14:23.448Z,70.18
2022-09-22T06:14:56.612Z,69.53
2022-09-22T06:15:28.730Z,71.53
2022-09-22T06:16:02.075Z,70.13
2022-09-22T06:16:33.920Z,68.50
2022-09-22T06:17:05.821Z,69.60
2022-09-22T06:17:38.538Z,71.55
2022-09-22T06:18:14.869Z,69.63
2022-09-22T06:18:48.321Z,69.35
2022-09-22T06:19:20.307Z,69.72
2022-09-22T06:19:51.986Z,71.55
2022-09-22T06:20:26.073Z,69.07
2022-09-22T06:20:58.021Z,69.05
2022-09-22T06:21:30.732Z,71.35
2022-09-22T06:22:03.012Z,70.60
2022-09-22T06:22:35.337Z,69.93
2022-09-22T06:23:09.087Z,70.00
2022-09-22T06:23:43.003Z,70.78
2022-09-22T06:24:15.899Z,69.95
2022-09-22T06:24:48.782Z,69.28
2022-09-22T06:25:21.578Z,70.85
2022-09-22T06:25:56.816Z,70.57
2022-09-22T06:26:28.496Z,70.35
2022-09-22T06:27:01.115Z,70.90
2022-09-22T06:27:33.145Z,71.50
2022-09-22T06:28:05.756Z,71.45
2022-09-22T06:28:38.478Z,70.60
2022-09-22T06:29:10.681Z,70.95
2022-09-22T06:29:42.385Z,72.13
2022-09-22T06:30:15.147Z,72.32
2022-09-22T06:30:51.916Z,72.80
2022-09-22T06:31:24.603Z,71.25
2022-09-22T06:31:56.460Z,70.43
2022-09-22T06:32:28.152Z,71.83
2022-09-22T06:33:03.026Z,70.93
2022-09-22T06:33:35.682Z,71.65
2022-09-22T06:34:07.839Z,71.55
2022-09-22T06:34:40.578Z,70.35
2022-09-22T06:35:12.217Z,70.50
2022-09-22T06:35:46.348Z,73.05
2022-09-22T06:36:27.801Z,72.90
2022-09-22T06:37:00.169Z,73.88
2022-09-22T06:37:33.184Z,74.35
2022-09-22T06:38:05.444Z,74.90
2022-09-22T06:38:37.057Z,75.00
2022-09-22T06:39:10.370Z,74.80
2022-09-22T06:39:43.660Z,75.55
2022-09-22T06:40:17.496Z,75.10
2022-09-22T06:40:50.773Z,74.00
2022-09-22T06:41:22.450Z,74.20
2022-09-22T06:41:55.399Z,75.28
2022-09-22T06:42:28.070Z,75.40
2022-09-22T06:43:02.015Z,76.13
2022-09-22T06:43:37.947Z,74.10
2022-09-22T06:44:12.681Z,77.95
2022-09-22T06:44:45.638Z,75.45
2022-09-22T06:45:18.778Z,77.20
2022-09-22T06:45:51.292Z,77.80
2022-09-22T06:46:26.146Z,75.53
2022-09-22T06:46:57.853Z,76.63
2022-09-22T06:47:32.394Z,76.95
2022-09-22T06:48:09.532Z,76.25
2022-09-22T06:48:41.883Z,78.22
2022-09-22T06:49:14.790Z,75.03
2022-09-22T06:49:49.542Z,77.05
2022-09-22T06:50:21.260Z,77.47
2022-09-22T06:50:55.572Z,76.70
2022-09-22T06:51:28.255Z,77.93
2022-09-22T06:52:00.971Z,77.20
2022-09-22T06:52:36.055Z,77.80
2022-09-22T06:53:12.349Z,76.57
2022-09-22T06:53:46.622Z,76.40
2022-09-22T06:54:24.839Z,77.22
2022-09-22T06:55:00.071Z,77.95
2022-09-22T06:55:38.128Z,76.78
2022-09-22T06:56:10.856Z,77.97
2022-09-22T06:56:43.406Z,76.88
2022-09-22T06:57:17.667Z,78.22
2022-09-22T06:57:51.588Z,79.25
2022-09-22T06:58:23.341Z,79.63
2022-09-22T06:59:09.922Z,78.38
2022-09-22T06:59:49.717Z,77.55
2022-09-22T07:00:23.037Z,79.32
2022-09-22T07:00:54.693Z,79.35
2022-09-22T07:01:28.263Z,79.10
2022-09-22T07:02:04.378Z,79.38
2022-09-22T07:02:36.116Z,80.32
2022-09-22T07:03:11.638Z,80.95
2022-09-22T07:03:44.508Z,81.40
2022-09-22T07:04:17.741Z,83.10
2022-09-22T07:04:52.304Z,84.03
2022-09-22T07:05:24.553Z,84.13
2022-09-22T07:06:01.059Z,84.03
2022-09-22T07:06:34.310Z,84.80
2022-09-22T07:07:06.854Z,83.22
2022-09-22T07:07:38.562Z,82.20
2022-09-22T07:08:11.590Z,82.82
2022-09-22T07:08:44.273Z,83.43
2022-09-22T07:09:17.744Z,80.10
2022-09-22T07:09:50.040Z,81.55
2022-09-22T07:10:21.666Z,78.43
2022-09-22T07:10:58.471Z,76.55
2022-09-22T07:11:30.414Z,74.53
2022-09-22T07:12:02.160Z,74.32